Time;durP1;ratioP1;P1;durP2;ratioP2;P2;SDS_P1;SDS_P2;PMS_P1;PMS_P2;Temp;Humidity;BMP_temperature;BMP_pressure;BME280_temperature;BME280_humidity;BME280_pressure;Samples;Min_cycle;Max_cycle;Signal;HPM_P1;HPM_P2
2020/12/25 00:00:07;;;;;;;29.12;19.77;;;;;;;8.68;77.15;95547.00;1656454;84;21181;-87
2020/12/25 00:02:38;;;;;;;28.30;19.55;;;;;;;8.58;77.26;95554.20;1698233;83;21069;-85
2020/12/25 00:05:26;;;;;;;41.40;26.35;;;;;;;8.53;77.51;95565.66;1699936;83;21048;-86
2020/12/25 00:08:34;;;;;;;25.62;17.67;;;;;;;8.48;77.56;95571.91;1704518;83;21187;-85
2020/12/25 00:11:07;;;;;;;21.40;16.02;;;;;;;8.47;77.83;95568.44;1704716;83;21201;-86
2020/12/25 00:13:37;;;;;;;21.37;14.53;;;;;;;8.48;77.79;95567.48;1700587;83;21163;-87
2020/12/25 00:16:09;;;;;;;28.60;17.87;;;;;;;8.47;77.88;95573.69;1704545;82;21221;-84
2020/12/25 00:19:16;;;;;;;45.65;28.75;;;;;;;8.45;78.01;95574.84;1697036;83;21093;-83
2020/12/25 00:22:27;;;;;;;33.70;21.52;;;;;;;8.44;78.10;95570.58;1677678;84;21229;-85
2020/12/25 01:45:35;;;;;;;13.05;8.30;;;;;;;8.47;77.87;95574.99;1593346;88;21256;-84
2020/12/25 01:48:25;;;;;;;13.70;8.53;;;;;;;7.77;78.44;95629.44;1632702;86;21099;-85
2020/12/25 01:51:34;;;;;;;12.33;7.80;;;;;;;7.79;78.36;95623.55;1629604;87;21283;-86
2020/12/25 01:54:03;;;;;;;11.60;7.53;;;;;;;7.84;78.20;95627.02;1615500;87;21154;-85
2020/12/25 01:56:44;;;;;;;15.23;8.60;;;;;;;7.88;78.18;95630.95;1631631;86;21103;-86
2020/12/25 01:59:16;;;;;;;12.43;7.70;;;;;;;7.92;78.02;95628.36;1639973;86;21138;-86
2020/12/25 02:02:25;;;;;;;14.78;9.78;;;;;;;7.97;77.94;95634.78;1609301;87;21592;-85
2020/12/25 02:04:54;;;;;;;13.03;8.45;;;;;;;7.96;77.63;95625.77;1692192;83;21070;-85
2020/12/25 02:07:23;;;;;;;12.85;8.98;;;;;;;7.91;77.65;95627.54;1700696;82;21062;-84
2020/12/25 02:10:17;;;;;;;14.63;8.45;;;;;;;7.94;77.60;95630.33;1701443;83;21855;-85
2020/12/25 02:12:46;;;;;;;13.20;7.85;;;;;;;8.00;77.34;95628.39;1665067;83;21051;-86
2020/12/25 02:15:21;;;;;;;11.30;6.85;;;;;;;8.02;77.20;95636.94;1688816;82;21080;-85
2020/12/25 02:18:08;;;;;;;10.10;5.10;;;;;;;8.00;76.92;95630.55;1701371;83;21114;-86
2020/12/25 02:20:37;;;;;;;7.95;4.75;;;;;;;7.97;76.43;95632.16;1688656;83;21219;-85
2020/12/25 02:23:09;;;;;;;7.50;4.22;;;;;;;7.96;76.10;95627.08;1709331;83;21066;-84
2020/12/25 02:26:06;;;;;;;7.45;3.90;;;;;;;7.92;75.73;95625.73;1692354;83;21120;-85
2020/12/25 02:28:55;;;;;;;9.53;4.42;;;;;;;7.89;75.40;95624.75;1644177;86;21197;-86
2020/12/25 02:31:26;;;;;;;6.47;3.42;;;;;;;7.85;75.60;95629.47;1707771;83;21102;-85
2020/12/25 02:34:06;;;;;;;5.25;2.37;;;;;;;7.84;75.47;95625.70;1700020;82;21082;-82
2020/12/25 02:36:43;;;;;;;6.20;3.20;;;;;;;7.81;75.13;95624.69;1699109;83;21066;-83
2020/12/25 02:39:12;;;;;;;7.42;3.58;;;;;;;7.79;74.98;95624.03;1707860;83;21132;-83
2020/12/25 02:42:29;;;;;;;5.67;2.85;;;;;;;7.73;75.03;95618.43;1681325;80;21324;31
2020/12/25 02:45:45;;;;;;;5.87;2.77;;;;;;;7.73;74.96;95622.86;1686568;80;21204;-82
2020/12/25 02:48:14;;;;;;;7.35;3.75;;;;;;;7.71;74.64;95620.39;1695282;83;21095;-82
2020/12/25 02:50:45;;;;;;;5.87;2.90;;;;;;;7.71;74.71;95619.58;1676046;81;21477;-85
2020/12/25 02:53:19;;;;;;;6.83;3.77;;;;;;;7.72;74.58;95620.72;1697283;81;21260;-85
2020/12/25 02:55:48;;;;;;;7.03;3.27;;;;;;;7.67;74.74;95616.92;1692849;81;21417;-84
2020/12/25 02:58:23;;;;;;;7.15;3.52;;;;;;;7.63;74.85;95619.51;1732838;80;21164;31
2020/12/25 03:01:18;;;;;;;6.87;3.87;;;;;;;7.58;74.92;95623.89;1707792;80;21205;-85
2020/12/25 03:04:06;;;;;;;8.83;4.92;;;;;;;7.48;75.02;95621.88;1688662;83;21080;-84
2020/12/25 03:06:35;;;;;;;8.18;5.10;;;;;;;7.37;75.29;95625.56;1673948;83;21146;-83
2020/12/25 03:09:40;;;;;;;8.53;4.55;;;;;;;7.32;75.59;95618.65;1663629;83;21300;-84
2020/12/25 03:12:49;;;;;;;7.92;4.40;;;;;;;7.38;75.77;95627.70;1659978;85;21181;-85
2020/12/25 03:15:37;;;;;;;9.48;5.00;;;;;;;7.35;75.82;95622.29;1669651;84;21240;-86
2020/12/25 03:18:08;;;;;;;9.73;5.20;;;;;;;7.29;76.08;95622.87;1695156;79;21231;-84
2020/12/25 03:21:18;;;;;;;8.03;5.45;;;;;;;7.27;76.30;95624.01;1687751;81;21275;-85
2020/12/25 03:23:57;;;;;;;10.60;6.40;;;;;;;7.29;76.27;95617.63;1692846;83;21364;-85
2020/12/25 03:26:28;;;;;;;12.35;7.25;;;;;;;7.29;76.22;95621.55;1691796;78;21300;-85
2020/12/25 03:32:33;;;;;;;12.47;7.55;;;;;;;7.20;76.24;95626.41;1660199;83;21139;-86
2020/12/25 03:35:04;;;;;;;15.45;7.65;;;;;;;7.16;76.60;95626.37;1655301;78;21259;-85
2020/12/25 03:38:07;;;;;;;14.50;8.40;;;;;;;7.15;76.68;95626.04;1704032;81;21196;-86
2020/12/25 03:40:36;;;;;;;13.05;7.60;;;;;;;7.11;76.89;95624.69;1693139;82;21073;-85
2020/12/25 03:43:08;;;;;;;18.20;11.38;;;;;;;7.11;77.06;95626.00;1690164;78;21215;-85
2020/12/25 03:46:13;;;;;;;17.23;10.40;;;;;;;7.12;77.04;95627.17;1671762;82;21278;-83
2020/12/25 03:48:42;;;;;;;68.28;33.00;;;;;;;7.12;77.01;95638.14;1692396;82;21211;-85
2020/12/25 03:51:39;;;;;;;18.70;10.88;;;;;;;7.17;77.02;95643.26;1691565;82;21213;-85
2020/12/25 03:54:47;;;;;;;21.73;10.90;;;;;;;7.28;76.94;95640.05;1687510;77;21218;-84
2020/12/25 03:57:32;;;;;;;38.48;19.62;;;;;;;7.36;76.57;95644.06;1683307;78;21071;-84
2020/12/25 04:00:01;;;;;;;65.00;31.80;;;;;;;7.33;76.43;95649.09;1673173;83;21079;-84
2020/12/25 04:02:32;;;;;;;90.47;44.60;;;;;;;7.29;76.49;95646.43;1690203;83;21686;-85
2020/12/25 04:05:01;;;;;;;49.30;23.62;;;;;;;7.22;76.54;95625.77;1683420;84;21322;-85
2020/12/25 04:07:32;;;;;;;26.07;14.60;;;;;;;7.19;76.58;95621.66;1683072;83;21251;-86
2020/12/25 04:10:01;;;;;;;22.73;11.63;;;;;;;7.16;76.69;95630.30;1673048;83;21150;-84
2020/12/25 04:12:30;;;;;;;20.50;12.37;;;;;;;7.12;76.79;95635.03;1668841;83;21071;-85
2020/12/25 04:14:59;;;;;;;44.23;22.37;;;;;;;7.05;76.99;95638.38;1625617;86;21075;-85
2020/12/25 04:17:27;;;;;;;105.52;44.67;;;;;;;7.00;77.13;95631.45;1632046;86;21447;-85
2020/12/25 04:19:56;;;;;;;45.80;21.62;;;;;;;6.97;77.36;95639.14;1640225;85;21224;-85
2020/12/25 04:22:24;;;;;;;31.35;16.37;;;;;;;7.01;77.33;95633.95;1673831;84;21101;-85
2020/12/25 04:24:56;;;;;;;27.02;14.05;;;;;;;7.09;77.19;95640.55;1616516;86;21177;-85
2020/12/25 04:27:35;;;;;;;29.80;15.25;;;;;;;7.09;76.94;95642.35;1642650;85;21190;-86
2020/12/25 04:30:08;;;;;;;39.03;20.82;;;;;;;7.07;76.96;95637.77;1641763;84;21416;-86
2020/12/25 04:32:38;;;;;;;46.45;23.80;;;;;;;7.02;77.06;95640.00;1625325;86;21653;-86
2020/12/25 04:35:07;;;;;;;56.45;29.00;;;;;;;6.98;77.14;95642.58;1682819;84;21093;-86
2020/12/25 04:37:37;;;;;;;53.25;25.70;;;;;;;6.90;77.29;95645.46;1664632;84;21590;-86
2020/12/25 04:40:08;;;;;;;64.12;28.83;;;;;;;6.91;77.59;95645.79;1622175;86;21194;-85
2020/12/25 04:42:41;;;;;;;34.40;15.68;;;;;;;7.02;77.40;95649.98;1625446;86;21405;-86
2020/12/25 04:45:10;;;;;;;28.38;14.30;;;;;;;7.08;76.91;95640.71;1668949;83;21113;-86
2020/12/25 04:47:41;;;;;;;20.65;10.65;;;;;;;7.03;76.64;95638.54;1621338;86;21114;-87
2020/12/25 04:50:10;;;;;;;18.82;9.58;;;;;;;6.90;76.64;95641.53;1599839;86;21126;-86
2020/12/25 04:52:38;;;;;;;13.53;6.50;;;;;;;6.82;77.08;95656.31;1639505;85;21109;-86
2020/12/25 04:55:08;;;;;;;11.20;6.00;;;;;;;6.79;77.07;95665.30;1647835;85;21449;-87
2020/12/25 04:57:36;;;;;;;12.25;6.53;;;;;;;6.77;77.16;95665.94;1645516;85;21325;-84
2020/12/25 05:00:19;;;;;;;13.75;7.65;;;;;;;6.80;77.19;95657.78;1649107;85;21209;-83
2020/12/25 05:40:51;;;;;;;13.07;7.67;;;;;;;6.30;77.63;95688.78;1607731;83;22186;-85
2020/12/25 19:32:19;;;;;;;25.00;15.78;;;;;;;3.16;74.90;96309.45;1623935;85;21164;-86
2020/12/25 19:35:28;;;;;;;25.55;17.15;;;;;;;3.18;75.18;96296.33;1630512;83;21347;-86
2020/12/25 19:38:36;;;;;;;23.05;17.50;;;;;;;3.25;75.16;96292.81;1629327;82;21315;-85
2020/12/25 19:41:47;;;;;;;27.10;18.67;;;;;;;3.34;75.16;96302.09;1695274;83;21203;-86
2020/12/25 20:00:25;;;;;;;25.00;16.70;;;;;;;3.16;74.99;96309.45;1729174;78;21502;31
2020/12/25 20:03:32;;;;;;;21.77;15.65;;;;;;;3.14;75.22;96310.05;1686867;84;21200;-86
2020/12/25 20:06:06;;;;;;;23.60;15.70;;;;;;;3.14;75.25;96307.89;1690500;84;21088;-86
2020/12/25 20:27:19;;;;;;;17.95;11.20;;;;;;;3.12;75.31;96326.69;1695109;80;21762;-85
2020/12/25 20:30:28;;;;;;;16.20;10.45;;;;;;;3.14;75.16;96330.86;1726937;81;21050;-86
2020/12/25 20:33:06;;;;;;;17.17;10.72;;;;;;;3.14;75.00;96330.00;1720844;79;21209;-84
2020/12/25 20:35:37;;;;;;;16.67;10.85;;;;;;;3.14;74.88;96337.80;1734453;81;21619;-85
2020/12/25 20:38:13;;;;;;;18.82;11.03;;;;;;;3.14;74.73;96341.70;1726689;81;21165;-86
2020/12/25 20:40:43;;;;;;;20.35;13.03;;;;;;;3.13;74.68;96335.67;1738910;81;21196;-86
2020/12/25 20:43:14;;;;;;;21.35;12.93;;;;;;;3.14;74.58;96328.70;1738734;81;21120;-85
2020/12/25 20:53:31;;;;;;;28.23;15.90;;;;;;;3.16;74.54;96334.17;1711891;78;21172;31
2020/12/25 20:56:23;;;;;;;30.25;15.85;;;;;;;3.14;74.44;96333.91;1667833;84;21075;-85
2020/12/25 20:59:55;;;;;;;23.55;14.40;;;;;;;3.16;74.38;96342.45;1657851;80;21318;31
2020/12/25 21:11:43;;;;;;;24.30;14.35;;;;;;;3.07;74.39;96342.62;1576793;84;21209;31
2020/12/25 21:14:29;;;;;;;23.47;14.00;;;;;;;3.06;74.57;96334.45;1589611;83;21301;-84
2020/12/25 21:25:28;;;;;;;14.38;8.68;;;;;;;3.18;73.94;96350.49;1547733;86;21411;-85
2020/12/25 21:35:59;;;;;;;11.12;7.08;;;;;;;3.15;73.84;96355.93;1492924;90;21344;-84
2020/12/25 21:48:31;;;;;;;13.47;8.53;;;;;;;3.38;72.93;96360.80;1637117;82;22752;-83
2020/12/25 21:51:46;;;;;;;13.15;7.78;;;;;;;3.38;72.73;96356.03;1557236;87;21301;-85
2020/12/25 21:55:28;;;;;;;14.43;8.10;;;;;;;3.32;72.84;96365.14;1587407;80;21231;31
2020/12/25 21:58:39;;;;;;;15.45;9.08;;;;;;;3.36;73.12;96374.37;1646409;84;21244;-84
2020/12/25 22:01:52;;;;;;;13.08;8.25;;;;;;;3.45;73.04;96368.98;1660256;83;21251;-84
2020/12/25 22:04:21;;;;;;;13.00;8.73;;;;;;;3.51;72.86;96369.02;1662040;85;21210;-84
2020/12/25 22:06:50;;;;;;;14.13;8.78;;;;;;;3.48;72.98;96376.09;1656392;85;21117;-85
2020/12/25 22:09:20;;;;;;;12.58;8.55;;;;;;;3.44;73.15;96377.27;1661524;84;21222;-85
2020/12/25 22:11:53;;;;;;;13.93;7.92;;;;;;;3.44;73.25;96381.65;1655025;84;21118;-85
2020/12/25 22:14:43;;;;;;;12.53;7.55;;;;;;;3.47;73.23;96391.34;1658596;85;21110;-85
2020/12/25 22:17:28;;;;;;;12.25;7.58;;;;;;;3.44;73.21;96390.76;1662718;84;21130;-82
2020/12/25 22:20:29;;;;;;;14.63;9.78;;;;;;;3.40;73.61;96391.44;1655403;84;21256;-85
2020/12/25 22:22:59;;;;;;;14.68;9.00;;;;;;;3.40;73.87;96395.81;1644524;85;21212;-84
2020/12/25 22:25:28;;;;;;;14.00;9.20;;;;;;;3.46;73.93;96393.59;1643918;86;21525;-84
2020/12/25 22:27:58;;;;;;;18.37;10.25;;;;;;;3.54;73.80;96389.13;1651314;85;21542;-85
2020/12/25 22:30:27;;;;;;;15.65;10.48;;;;;;;3.60;73.49;96383.95;1643901;86;21196;-84
2020/12/25 22:32:57;;;;;;;19.35;11.30;;;;;;;3.58;73.58;96382.77;1584677;88;21146;-85
2020/12/25 22:35:35;;;;;;;17.30;9.18;;;;;;;3.56;73.51;96382.06;1640402;85;21764;-85
2020/12/25 22:38:23;;;;;;;18.35;10.85;;;;;;;3.55;73.56;96377.77;1580833;89;21215;-85
2020/12/25 22:40:52;;;;;;;15.13;9.35;;;;;;;3.54;73.56;96393.51;1636999;85;21163;-84
2020/12/25 22:43:20;;;;;;;13.60;8.38;;;;;;;3.51;73.46;96393.27;1646310;85;21214;-84
2020/12/25 22:45:56;;;;;;;13.75;8.90;;;;;;;3.47;73.77;96398.33;1663351;84;21214;-85
2020/12/25 22:48:29;;;;;;;16.42;9.65;;;;;;;3.51;73.95;96398.48;1656722;84;21222;-87
2020/12/25 22:51:00;;;;;;;20.25;12.20;;;;;;;3.53;73.95;96390.55;1649074;84;21163;-86
2020/12/25 22:53:35;;;;;;;15.63;10.03;;;;;;;3.49;73.87;96394.66;1594352;86;21546;-84
2020/12/25 22:56:05;;;;;;;15.05;9.70;;;;;;;3.44;74.25;96395.96;1630980;85;21104;-84
2020/12/25 22:58:35;;;;;;;15.75;9.45;;;;;;;3.39;74.23;96393.68;1644333;85;21213;-83
2020/12/25 23:01:04;;;;;;;14.58;9.70;;;;;;;3.37;74.59;96393.41;1647555;85;21312;-82
2020/12/25 23:03:33;;;;;;;15.45;9.00;;;;;;;3.41;74.58;96394.86;1657162;84;21092;-83
2020/12/25 23:06:06;;;;;;;15.30;9.40;;;;;;;3.40;74.66;96394.51;1645187;85;21099;-82
2020/12/25 23:08:38;;;;;;;16.27;10.72;;;;;;;3.39;74.84;96396.75;1654594;84;21196;-83
2020/12/25 23:11:46;;;;;;;14.60;9.05;;;;;;;3.37;75.05;96391.64;1655292;85;21619;-83
2020/12/25 23:14:31;;;;;;;17.65;9.60;;;;;;;3.41;75.13;96395.69;1654765;84;21387;-84
2020/12/25 23:17:39;;;;;;;15.03;9.45;;;;;;;3.42;74.88;96399.12;1660488;84;21350;-86
2020/12/25 23:20:46;;;;;;;20.05;11.15;;;;;;;3.30;75.19;96390.42;1669113;80;21353;-81
2020/12/25 23:24:08;;;;;;;15.68;9.63;;;;;;;3.27;75.50;96402.36;1654839;84;21099;-85
2020/12/25 23:26:42;;;;;;;14.58;10.05;;;;;;;3.19;75.54;96395.08;1657099;84;21188;-84
2020/12/25 23:29:12;;;;;;;16.07;10.60;;;;;;;3.15;75.93;96392.35;1655440;84;21381;-84
2020/12/25 23:31:41;;;;;;;15.38;10.48;;;;;;;3.17;76.34;96403.95;1669589;84;22234;-84
2020/12/25 23:34:16;;;;;;;24.80;14.15;;;;;;;3.21;76.35;96404.92;1662273;85;21117;-84
2020/12/25 23:36:47;;;;;;;16.20;10.32;;;;;;;3.22;76.24;96397.95;1665533;84;21194;-84
2020/12/25 23:39:17;;;;;;;17.92;10.28;;;;;;;3.19;76.47;96401.58;1665554;84;21180;-85
2020/12/25 23:41:50;;;;;;;15.48;10.03;;;;;;;3.19;76.40;96402.88;1667506;84;21290;-84
2020/12/25 23:44:27;;;;;;;15.65;9.45;;;;;;;3.14;76.46;96418.02;1668836;85;21080;-85
2020/12/25 23:47:18;;;;;;;17.35;10.35;;;;;;;3.12;76.59;96419.87;1660264;84;21298;-85
2020/12/25 23:49:48;;;;;;;15.32;9.88;;;;;;;3.10;76.74;96421.75;1670448;84;21086;-84
2020/12/25 23:52:27;;;;;;;14.95;10.05;;;;;;;3.08;76.55;96418.88;1665448;84;21071;-84
2020/12/25 23:54:57;;;;;;;15.60;10.72;;;;;;;2.98;76.68;96421.31;1672568;84;21278;-84
2020/12/25 23:57:26;;;;;;;16.52;9.83;;;;;;;2.92;76.90;96417.36;1683628;84;21258;-82
2020/12/25 23:59:56;;;;;;;15.28;9.00;;;;;;;2.89;76.92;96421.94;1679780;84;21076;-82
